createdAt,value
2019-02-12T00:00:34.006Z,0
2019-02-12T00:03:30.575Z,0
2019-02-12T00:06:31.015Z,0
2019-02-12T00:09:30.757Z,0
2019-02-12T00:12:31.373Z,0
2019-02-12T00:15:30.933Z,0
2019-02-12T00:18:30.528Z,0
2019-02-12T00:21:30.989Z,0
2019-02-12T00:24:30.446Z,0
2019-02-12T00:27:30.806Z,0
2019-02-12T00:30:30.305Z,0
2019-02-12T00:33:30.826Z,0
2019-02-12T00:36:30.467Z,0
2019-02-12T00:39:30.943Z,0
2019-02-12T00:42:32.102Z,0
2019-02-12T00:45:30.624Z,0
2019-02-12T00:48:31.257Z,0
2019-02-12T00:51:33.257Z,0
2019-02-12T00:54:30.834Z,0
2019-02-12T00:57:30.352Z,0
2019-02-12T01:00:30.892Z,0
2019-02-12T01:03:30.429Z,0
2019-02-12T01:06:30.945Z,0
2019-02-12T01:09:30.592Z,0
2019-02-12T01:12:31.119Z,0
2019-02-12T01:15:30.655Z,0
2019-02-12T01:18:31.223Z,0
2019-02-12T01:21:30.799Z,0
2019-02-12T01:24:30.223Z,0
2019-02-12T01:27:30.836Z,0
2019-02-12T01:30:32.521Z,0
2019-02-12T01:33:31.129Z,0
2019-02-12T01:36:30.930Z,0
2019-02-12T01:39:30.650Z,0
2019-02-12T01:42:32.695Z,0
2019-02-12T01:45:31.264Z,0
2019-02-12T01:48:30.621Z,0
2019-02-12T01:51:37.593Z,0
2019-02-12T01:54:30.991Z,0
2019-02-12T01:57:30.535Z,0
2019-02-12T02:00:31.147Z,0
2019-02-12T02:03:30.449Z,0
2019-02-12T02:06:30.902Z,0
2019-02-12T02:09:30.637Z,0
2019-02-12T02:12:31.071Z,0
2019-02-12T02:15:30.611Z,0
2019-02-12T02:18:31.268Z,0
2019-02-12T02:21:30.825Z,0
2019-02-12T02:24:30.415Z,0
2019-02-12T02:27:30.982Z,0
2019-02-12T02:30:30.656Z,0
2019-02-12T02:33:31.211Z,0
2019-02-12T02:36:32.222Z,0
2019-02-12T02:39:31.645Z,0
2019-02-12T02:42:31.131Z,0
2019-02-12T02:45:30.656Z,0
2019-02-12T02:48:31.265Z,0
2019-02-12T02:51:31.384Z,0
2019-02-12T02:54:30.775Z,0
2019-02-12T02:57:31.372Z,0
2019-02-12T03:00:30.866Z,0
2019-02-12T03:03:30.271Z,0
2019-02-12T03:06:30.710Z,0
2019-02-12T03:09:31.494Z,0
2019-02-12T03:12:31.084Z,0
2019-02-12T03:15:30.711Z,0
2019-02-12T03:18:31.236Z,0
2019-02-12T03:21:30.672Z,0
2019-02-12T03:24:31.317Z,0
2019-02-12T03:27:30.921Z,0
2019-02-12T03:30:30.436Z,0
2019-02-12T03:33:30.975Z,0
2019-02-12T03:36:30.498Z,0
2019-02-12T03:39:30.927Z,0
2019-02-12T03:42:30.444Z,0
2019-02-12T03:45:32.640Z,0
2019-02-12T03:48:31.284Z,0
2019-02-12T03:51:31.028Z,0
2019-02-12T03:54:30.811Z,0
2019-02-12T03:57:30.490Z,0
2019-02-12T04:00:31.196Z,0
2019-02-12T04:03:30.920Z,0
2019-02-12T04:06:30.419Z,0
2019-02-12T04:09:30.894Z,0
2019-02-12T04:12:30.486Z,0
2019-02-12T04:15:33.045Z,0
2019-02-12T04:18:30.818Z,0
2019-02-12T04:21:30.632Z,0
2019-02-12T04:24:31.244Z,0
2019-02-12T04:27:30.802Z,0
2019-02-12T04:30:30.620Z,0
2019-02-12T04:33:31.323Z,0
2019-02-12T04:36:30.899Z,0
2019-02-12T04:39:30.449Z,0
2019-02-12T04:42:30.965Z,0
2019-02-12T04:45:30.745Z,0
2019-02-12T04:48:32.940Z,0
2019-02-12T04:51:30.420Z,0
2019-02-12T04:54:30.838Z,0
2019-02-12T04:57:30.492Z,0
2019-02-12T05:00:31.124Z,0
2019-02-12T05:03:30.532Z,0
2019-02-12T05:06:31.184Z,0
2019-02-12T05:09:31.163Z,0
2019-02-12T05:12:31.283Z,0
2019-02-12T05:15:30.910Z,0
2019-02-12T05:18:30.487Z,0
2019-02-12T05:21:31.094Z,0
2019-02-12T05:24:30.730Z,0
2019-02-12T05:27:30.475Z,0
2019-02-12T05:30:36.089Z,0
2019-02-12T05:33:30.622Z,0
2019-02-12T05:36:31.121Z,0
2019-02-12T05:39:30.900Z,0
2019-02-12T05:42:30.512Z,0
2019-02-12T05:45:31.529Z,0
2019-02-12T05:48:31.190Z,0
2019-02-12T05:51:30.814Z,0
2019-02-12T05:54:30.609Z,0
2019-02-12T05:57:31.266Z,0
2019-02-12T06:00:33.499Z,0
2019-02-12T06:03:31.003Z,0
2019-02-12T06:06:32.887Z,0
2019-02-12T06:09:30.475Z,0
2019-02-12T06:12:31.011Z,0
2019-02-12T06:15:30.795Z,0
2019-02-12T06:18:30.524Z,0
2019-02-12T06:21:31.220Z,1
2019-02-12T06:24:31.157Z,1
2019-02-12T06:27:30.773Z,2
2019-02-12T06:30:31.492Z,3
2019-02-12T06:33:31.182Z,8
2019-02-12T06:36:31.167Z,16
2019-02-12T06:39:30.933Z,24
2019-02-12T06:48:31.105Z,66
2019-02-12T06:51:30.870Z,88
2019-02-12T06:54:30.495Z,118
2019-02-12T06:57:31.182Z,145
2019-02-12T07:00:30.813Z,170
2019-02-12T07:03:39.392Z,204
2019-02-12T07:06:53.582Z,252
2019-02-12T07:09:45.763Z,297
2019-02-12T07:13:15.463Z,327
2019-02-12T07:15:36.726Z,412
2019-02-12T07:19:17.987Z,514
2019-02-12T07:21:42.677Z,692
2019-02-12T07:24:59.815Z,711
2019-02-12T07:28:15.281Z,661
2019-02-12T07:31:06.717Z,600
2019-02-12T07:34:22.988Z,609
2019-02-12T07:39:02.210Z,702
2019-02-12T07:39:45.182Z,807
2019-02-12T07:43:03.167Z,817
2019-02-12T07:45:40.542Z,792
2019-02-12T07:48:45.264Z,896
2019-02-12T07:53:42.697Z,952
2019-02-12T07:54:37.745Z,1461
2019-02-12T07:58:20.576Z,1596
2019-02-12T08:01:17.623Z,2067
2019-02-12T08:04:43.685Z,2249
2019-02-12T08:07:11.555Z,2535
2019-02-12T08:10:24.366Z,2762
2019-02-12T08:12:41.873Z,2954
2019-02-12T08:15:58.131Z,2975
2019-02-12T08:18:42.222Z,3248
2019-02-12T08:23:50.210Z,3245
2019-02-12T08:24:43.182Z,3161
2019-02-12T08:29:43.869Z,3178
2019-02-12T08:30:40.574Z,3130
2019-02-12T08:34:30.428Z,3254
2019-02-12T08:37:48.699Z,3999
2019-02-12T08:41:40.185Z,4742
2019-02-12T08:43:10.759Z,5751
2019-02-12T08:45:52.508Z,6259
2019-02-12T08:48:39.503Z,7962
2019-02-12T08:52:15.036Z,8335
2019-02-12T08:55:44.984Z,9258
2019-02-12T08:57:38.515Z,8327
2019-02-12T09:01:47.693Z,8118
2019-02-12T09:05:07.144Z,7735
2019-02-12T09:06:55.847Z,6725
2019-02-12T09:10:32.499Z,6025
2019-02-12T09:12:44.238Z,5727
2019-02-12T09:17:46.215Z,6456
2019-02-12T09:19:13.219Z,9863
2019-02-12T09:21:44.406Z,9606
2019-02-12T09:26:48.737Z,8744
2019-02-12T09:28:12.333Z,7868
2019-02-12T09:32:36.852Z,7905
2019-02-12T09:33:41.211Z,6849
2019-02-12T09:39:16.155Z,6932
2019-02-12T09:39:51.765Z,8378
2019-02-12T09:42:54.701Z,8072
2019-02-12T09:45:53.642Z,7918
2019-02-12T09:48:41.602Z,6657
2019-02-12T09:52:38.139Z,6863
2019-02-12T09:54:59.402Z,6419
2019-02-12T09:57:41.071Z,6062
2019-02-12T10:01:01.054Z,6602
2019-02-12T10:05:44.107Z,7107
2019-02-12T10:06:50.721Z,7101
2019-02-12T10:10:15.146Z,6630
2019-02-12T10:12:38.334Z,6702
2019-02-12T10:16:27.765Z,6221
2019-02-12T10:18:40.785Z,4807
2019-02-12T10:21:46.635Z,5704
2019-02-12T10:25:12.831Z,5288
2019-02-12T10:29:07.926Z,5427
2019-02-12T10:30:41.279Z,5412
2019-02-12T10:33:31.753Z,5521
2019-02-12T10:36:31.373Z,5805
2019-02-12T10:39:31.217Z,5565
2019-02-12T10:42:30.894Z,5735
2019-02-12T10:45:30.644Z,7533
2019-02-12T10:48:31.691Z,4980
2019-02-12T10:51:31.433Z,6658
2019-02-12T10:54:31.253Z,6643
2019-02-12T10:57:31.148Z,6569
2019-02-12T11:00:31.012Z,6375
2019-02-12T11:03:30.832Z,6459
2019-02-12T11:06:30.504Z,6626
2019-02-12T11:09:31.161Z,7308
2019-02-12T11:12:35.940Z,7215
2019-02-12T11:15:30.469Z,7574
2019-02-12T11:18:31.430Z,8323
2019-02-12T11:21:31.141Z,7836
2019-02-12T11:24:38.227Z,5881
2019-02-12T11:27:30.699Z,6078
2019-02-12T11:30:31.315Z,6958
2019-02-12T11:33:30.730Z,6768
2019-02-12T11:36:31.188Z,6819
2019-02-12T11:39:30.573Z,6637
2019-02-12T11:42:31.071Z,6332
2019-02-12T11:45:30.761Z,6594
2019-02-12T11:48:31.447Z,6734
2019-02-12T11:51:32.513Z,6597
2019-02-12T11:57:55.279Z,6410
2019-02-12T12:03:33.106Z,6634
2019-02-12T12:04:00.999Z,6497
2019-02-12T12:06:55.858Z,6486
2019-02-12T12:13:51.019Z,7749
2019-02-12T12:15:56.843Z,7740
2019-02-12T12:19:02.992Z,7796
2019-02-12T12:22:37.599Z,7470
2019-02-12T12:24:55.426Z,7439
2019-02-12T12:28:19.214Z,6976
2019-02-12T12:32:11.075Z,6507
2019-02-12T12:34:07.362Z,6513
2019-02-12T12:38:48.127Z,6429
2019-02-12T12:39:40.388Z,6063
2019-02-12T12:43:36.489Z,6186
2019-02-12T12:46:32.001Z,6882
2019-02-12T12:49:35.599Z,7552
2019-02-12T12:55:35.544Z,8136
2019-02-12T12:58:27.614Z,8383
2019-02-12T13:01:14.328Z,8260
2019-02-12T13:04:39.613Z,8042
2019-02-12T13:07:05.537Z,8000
2019-02-12T13:13:31.723Z,6472
2019-02-12T13:19:30.770Z,6400
2019-02-12T13:20:07.116Z,6801
2019-02-12T13:22:00.063Z,6820
2019-02-12T13:32:02.626Z,6130
2019-02-12T13:32:08.639Z,6496
2019-02-12T13:36:21.844Z,6133
2019-02-12T13:37:00.077Z,6468
2019-02-12T13:40:01.810Z,6530
2019-02-12T13:42:52.015Z,6145
2019-02-12T13:45:49.295Z,5903
2019-02-12T13:49:46.939Z,6120
2019-02-12T13:55:17.421Z,7335
2019-02-12T13:55:39.816Z,6482
2019-02-12T13:57:46.560Z,7282
2019-02-12T14:00:49.171Z,5892
2019-02-12T14:04:03.609Z,5494
2019-02-12T14:06:56.004Z,5292
2019-02-12T14:09:38.704Z,5252
2019-02-12T14:12:35.592Z,5158
2019-02-12T14:15:57.410Z,4939
2019-02-12T14:18:35.893Z,4877
2019-02-12T14:21:34.354Z,4569
2019-02-12T14:24:54.934Z,4748
2019-02-12T14:27:32.887Z,5000
2019-02-12T14:30:33.208Z,5361
2019-02-12T14:33:39.167Z,5409
2019-02-12T14:36:32.833Z,5288
2019-02-12T14:39:33.825Z,5297
2019-02-12T14:42:31.965Z,5275
2019-02-12T14:45:34.416Z,5091
2019-02-12T14:48:34.790Z,4588
2019-02-12T14:51:33.865Z,3866
2019-02-12T14:54:34.817Z,3662
2019-02-12T14:57:34.787Z,3471
2019-02-12T15:00:34.034Z,3251
2019-02-12T15:03:40.715Z,2967
2019-02-12T15:06:34.270Z,2632
2019-02-12T15:09:34.538Z,2488
2019-02-12T15:12:34.153Z,2474
2019-02-12T15:15:33.547Z,2526
2019-02-12T15:18:47.664Z,2598
2019-02-12T15:21:33.000Z,2771
2019-02-12T15:24:36.811Z,2767
2019-02-12T15:27:34.284Z,2584
2019-02-12T15:30:34.794Z,2507
2019-02-12T15:33:34.055Z,2380
2019-02-12T15:36:33.977Z,2148
2019-02-12T15:39:33.898Z,2051
2019-02-12T15:42:33.577Z,1928
2019-02-12T15:45:38.313Z,1752
2019-02-12T15:48:33.877Z,1564
2019-02-12T15:51:35.310Z,1480
2019-02-12T15:54:34.799Z,1342
2019-02-12T15:57:34.745Z,1236
2019-02-12T16:00:41.322Z,1165
2019-02-12T16:03:44.037Z,1027
2019-02-12T16:26:23.439Z,865
2019-02-12T16:32:19.939Z,638
2019-02-12T16:35:34.808Z,361
2019-02-12T17:01:14.613Z,49
2019-02-12T17:28:12.203Z,0
2019-02-12T17:28:37.316Z,0
2019-02-12T17:28:40.627Z,0
2019-02-12T17:30:31.373Z,0
2019-02-12T17:33:31.033Z,0
2019-02-12T17:36:30.425Z,0
2019-02-12T17:39:30.961Z,0
2019-02-12T17:42:30.497Z,0
2019-02-12T17:45:31.005Z,0
2019-02-12T17:48:30.419Z,0
2019-02-12T17:51:31.306Z,0
2019-02-12T17:54:31.070Z,0
2019-02-12T17:57:30.749Z,0
2019-02-12T18:00:33.529Z,0
2019-02-12T18:03:31.306Z,0
2019-02-12T18:06:30.906Z,0
2019-02-12T18:09:31.134Z,0
2019-02-12T18:12:31.038Z,0
2019-02-12T18:15:32.123Z,0
2019-02-12T18:18:31.288Z,0
2019-02-12T18:21:31.202Z,0
2019-02-12T18:24:31.045Z,0
2019-02-12T18:27:32.569Z,0
2019-02-12T18:30:31.114Z,0
2019-02-12T18:33:31.164Z,0
2019-02-12T18:36:30.782Z,0
2019-02-12T18:39:31.833Z,0
2019-02-12T18:42:30.546Z,0
2019-02-12T18:45:31.337Z,0
2019-02-12T18:48:31.452Z,0
2019-02-12T18:51:31.202Z,0
2019-02-12T18:54:31.033Z,0
2019-02-12T18:57:30.746Z,0
2019-02-12T19:00:31.579Z,0
2019-02-12T19:03:31.432Z,0
2019-02-12T19:06:31.297Z,0
2019-02-12T19:09:31.017Z,0
2019-02-12T19:12:30.503Z,0
2019-02-12T19:15:31.323Z,0
2019-02-12T19:18:31.793Z,0
2019-02-12T19:21:30.431Z,0
2019-02-12T19:24:31.283Z,0
2019-02-12T19:27:32.601Z,0
2019-02-12T19:30:32.060Z,0
2019-02-12T19:33:30.633Z,0
2019-02-12T19:37:46.654Z,0
2019-02-12T19:43:30.656Z,0
2019-02-12T19:46:35.294Z,0
2019-02-12T19:47:01.451Z,0
2019-02-12T19:50:56.956Z,0
2019-02-12T19:51:53.178Z,0
2019-02-12T19:55:00.189Z,0
2019-02-12T19:57:59.179Z,0
2019-02-12T20:01:39.115Z,0
2019-02-12T20:03:55.036Z,0
2019-02-12T20:12:10.504Z,0
2019-02-12T20:13:32.045Z,0
2019-02-12T20:19:22.250Z,0
2019-02-12T20:20:12.791Z,0
2019-02-12T20:28:31.004Z,0
2019-02-12T20:28:51.515Z,0
2019-02-12T20:29:00.990Z,0
2019-02-12T20:31:56.471Z,0
2019-02-12T20:35:00.083Z,0
2019-02-12T20:38:32.360Z,0
2019-02-12T20:45:30.938Z,0
2019-02-12T20:52:27.945Z,0
2019-02-12T20:52:32.727Z,0
2019-02-12T20:57:31.031Z,0
2019-02-12T20:57:32.124Z,0
2019-02-12T20:57:53.704Z,0
2019-02-12T21:00:37.712Z,0
2019-02-12T21:03:36.926Z,0
2019-02-12T21:06:37.679Z,0
2019-02-12T21:09:36.445Z,0
2019-02-12T21:12:31.088Z,0
2019-02-12T21:15:31.205Z,0
2019-02-12T21:18:30.963Z,0
2019-02-12T21:21:30.688Z,0
2019-02-12T21:24:31.403Z,0
2019-02-12T21:30:32.763Z,0
2019-02-12T21:33:31.291Z,0
2019-02-12T21:36:31.336Z,0
2019-02-12T21:39:31.056Z,0
2019-02-12T21:42:30.661Z,0
2019-02-12T21:45:31.453Z,0
2019-02-12T21:48:37.729Z,0
2019-02-12T21:51:32.592Z,0
2019-02-12T21:54:31.207Z,0
2019-02-12T21:57:34.497Z,0
2019-02-12T22:00:31.032Z,0
2019-02-12T22:03:30.412Z,0
2019-02-12T22:06:31.108Z,0
2019-02-12T22:09:30.703Z,0
2019-02-12T22:12:31.148Z,0
2019-02-12T22:15:30.728Z,0
2019-02-12T22:18:30.376Z,0
2019-02-12T22:21:30.756Z,0
2019-02-12T22:24:31.332Z,0
2019-02-12T22:27:30.884Z,0
2019-02-12T22:30:30.518Z,0
2019-02-12T22:33:31.073Z,0
2019-02-12T22:36:30.818Z,0
2019-02-12T22:39:30.235Z,0
2019-02-12T22:42:31.029Z,0
2019-02-12T22:45:30.709Z,0
2019-02-12T22:48:31.135Z,0
2019-02-12T22:51:30.853Z,0
2019-02-12T22:54:30.423Z,0
2019-02-12T22:57:30.847Z,0
2019-02-12T23:00:38.268Z,0
2019-02-12T23:03:30.926Z,0
2019-02-12T23:06:30.525Z,0
2019-02-12T23:09:31.142Z,0
2019-02-12T23:12:30.888Z,0
2019-02-12T23:15:30.471Z,0
2019-02-12T23:18:31.000Z,0
2019-02-12T23:21:30.715Z,0
2019-02-12T23:24:31.164Z,0
2019-02-12T23:27:30.896Z,0
2019-02-12T23:30:30.443Z,0
2019-02-12T23:33:30.934Z,0
2019-02-12T23:36:30.476Z,0
2019-02-12T23:39:30.862Z,0
2019-02-12T23:42:30.399Z,0
2019-02-12T23:45:30.978Z,0
2019-02-12T23:48:30.366Z,0
2019-02-12T23:51:30.788Z,0
2019-02-12T23:54:30.310Z,0
2019-02-12T23:57:30.668Z,0
